createdAt,value
2023-02-27T00:02:17.957Z,-0.80
2023-02-27T00:04:45.665Z,-0.82
2023-02-27T00:07:13.464Z,-0.95
2023-02-27T00:09:42.386Z,-1.02
2023-02-27T00:12:11.945Z,-0.90
2023-02-27T00:14:39.782Z,-0.91
2023-02-27T00:17:07.886Z,-0.92
2023-02-27T00:19:35.481Z,-0.97
2023-02-27T00:22:03.419Z,-0.79
2023-02-27T00:24:31.044Z,-0.79
2023-02-27T00:27:00.136Z,-0.79
2023-02-27T00:29:27.832Z,-0.79
2023-02-27T00:31:55.776Z,-0.81
2023-02-27T00:34:25.606Z,-0.93
2023-02-27T00:36:53.933Z,-0.86
2023-02-27T00:39:21.523Z,-0.81
2023-02-27T00:41:49.105Z,-0.78
2023-02-27T00:44:18.575Z,-0.73
2023-02-27T00:46:46.830Z,-0.82
2023-02-27T00:49:14.425Z,-0.91
2023-02-27T00:51:42.052Z,-0.93
2023-02-27T00:54:10.022Z,-0.90
2023-02-27T00:56:37.898Z,-1.06
2023-02-27T00:59:05.616Z,-1.06
2023-02-27T01:01:35.333Z,-1.20
2023-02-27T01:04:03.391Z,-1.29
2023-02-27T01:06:31.361Z,-1.34
2023-02-27T01:08:59.561Z,-1.41
2023-02-27T01:11:27.502Z,-1.36
2023-02-27T01:13:55.654Z,-1.37
2023-02-27T01:16:23.691Z,-1.42
2023-02-27T01:18:54.802Z,-1.56
2023-02-27T01:21:24.448Z,-1.56
2023-02-27T01:23:52.564Z,-1.66
2023-02-27T01:26:20.632Z,-1.75
2023-02-27T01:28:48.498Z,-1.70
2023-02-27T01:31:16.370Z,-1.59
2023-02-27T01:33:44.365Z,-1.72
2023-02-27T01:36:13.290Z,-1.69
2023-02-27T01:38:41.420Z,-1.71
2023-02-27T01:41:09.020Z,-1.98
2023-02-27T01:43:55.464Z,-1.89
2023-02-27T01:46:23.257Z,-1.92
2023-02-27T01:48:55.958Z,-1.85
2023-02-27T01:51:25.200Z,-1.85
2023-02-27T01:53:54.866Z,-1.80
2023-02-27T01:56:25.863Z,-1.90
2023-02-27T01:58:57.103Z,-1.90
2023-02-27T02:01:27.189Z,-1.92
2023-02-27T02:04:01.262Z,-1.97
2023-02-27T02:06:36.714Z,-1.97
2023-02-27T02:09:08.545Z,-2.02
2023-02-27T02:11:36.494Z,-1.94
2023-02-27T02:14:04.923Z,-1.82
2023-02-27T02:16:46.121Z,-1.89
2023-02-27T02:19:45.458Z,-1.95
2023-02-27T02:22:56.973Z,-1.89
2023-02-27T02:25:55.240Z,-1.94
2023-02-27T02:28:46.341Z,-1.99
2023-02-27T02:31:40.691Z,-2.08
2023-02-27T02:34:45.624Z,-1.95
2023-02-27T02:37:42.575Z,-2.09
2023-02-27T02:40:22.841Z,-2.04
2023-02-27T02:42:58.326Z,-1.97
2023-02-27T02:45:32.192Z,-1.91
2023-02-27T02:48:10.499Z,-1.84
2023-02-27T02:50:45.696Z,-1.78
2023-02-27T02:53:22.142Z,-1.81
2023-02-27T02:55:57.119Z,-1.81
2023-02-27T02:58:30.850Z,-1.80
2023-02-27T03:01:04.997Z,-1.78
2023-02-27T03:03:36.082Z,-1.83
2023-02-27T03:06:07.590Z,-1.79
2023-02-27T03:08:40.445Z,-1.75
2023-02-27T03:11:10.936Z,-1.63
2023-02-27T03:13:45.128Z,-1.56
2023-02-27T03:16:18.558Z,-1.56
2023-02-27T03:18:51.430Z,-1.53
2023-02-27T03:21:25.577Z,-1.53
2023-02-27T03:23:57.239Z,-1.56
2023-02-27T03:26:34.123Z,-1.50
2023-02-27T03:29:04.935Z,-1.69
2023-02-27T03:31:39.446Z,-1.57
2023-02-27T03:34:14.580Z,-1.60
2023-02-27T03:36:48.909Z,-1.46
2023-02-27T03:39:25.981Z,-1.38
2023-02-27T03:42:01.962Z,-1.45
2023-02-27T03:44:57.160Z,-1.41
2023-02-27T03:47:25.383Z,-1.47
2023-02-27T03:49:54.544Z,-1.40
2023-02-27T03:52:24.103Z,-1.59
2023-02-27T03:54:59.831Z,-1.60
2023-02-27T03:57:29.047Z,-1.41
2023-02-27T03:59:57.976Z,-1.41
2023-02-27T04:02:26.807Z,-1.39
2023-02-27T04:04:55.187Z,-1.33
2023-02-27T04:07:59.114Z,-1.36
2023-02-27T04:10:39.533Z,-1.49
2023-02-27T04:13:37.614Z,-1.52
2023-02-27T04:16:30.570Z,-1.36
2023-02-27T04:19:13.870Z,-1.36
2023-02-27T04:21:49.952Z,-1.36
2023-02-27T04:24:37.151Z,-1.31
2023-02-27T04:27:16.924Z,-1.37
2023-02-27T04:29:55.253Z,-1.42
2023-02-27T04:32:31.324Z,-1.38
2023-02-27T04:35:03.104Z,-1.48
2023-02-27T04:37:37.045Z,-1.47
2023-02-27T04:40:09.439Z,-1.40
2023-02-27T04:42:43.175Z,-1.41
2023-02-27T04:45:16.044Z,-1.41
2023-02-27T04:47:51.006Z,-1.52
2023-02-27T04:50:23.331Z,-1.54
2023-02-27T04:52:56.746Z,-1.58
2023-02-27T04:55:28.172Z,-1.46
2023-02-27T04:58:00.664Z,-1.42
2023-02-27T05:00:32.797Z,-1.46
2023-02-27T05:03:06.899Z,-1.50
2023-02-27T05:05:36.421Z,-1.57
2023-02-27T05:08:10.250Z,-1.50
2023-02-27T05:10:43.941Z,-1.57
2023-02-27T05:13:15.899Z,-1.59
2023-02-27T05:15:49.544Z,-1.45
2023-02-27T05:18:20.694Z,-1.51
2023-02-27T05:21:02.486Z,-1.54
2023-02-27T05:23:40.568Z,-1.55
2023-02-27T05:26:17.826Z,-1.48
2023-02-27T05:28:52.698Z,-1.42
2023-02-27T05:31:27.750Z,-1.45
2023-02-27T05:34:00.887Z,-1.45
2023-02-27T05:36:34.776Z,-1.48
2023-02-27T05:39:05.774Z,-1.55
2023-02-27T05:41:36.717Z,-1.59
2023-02-27T05:44:07.383Z,-1.45
2023-02-27T05:46:40.363Z,-1.45
2023-02-27T05:49:12.732Z,-1.34
2023-02-27T05:51:45.010Z,-1.43
2023-02-27T05:54:17.531Z,-1.49
2023-02-27T05:56:50.318Z,-1.45
2023-02-27T05:59:23.156Z,-1.69
2023-02-27T06:01:52.911Z,-1.58
2023-02-27T06:04:20.895Z,-1.57
2023-02-27T06:06:49.788Z,-1.66
2023-02-27T06:09:17.535Z,-1.69
2023-02-27T06:11:45.461Z,-1.64
2023-02-27T06:14:13.900Z,-1.64
2023-02-27T06:16:41.541Z,-1.69
2023-02-27T06:19:10.849Z,-1.80
2023-02-27T06:21:38.420Z,-1.58
2023-02-27T06:24:06.328Z,-1.61
2023-02-27T06:26:33.913Z,-1.37
2023-02-27T06:29:01.718Z,-1.52
2023-02-27T06:31:29.304Z,-1.40
2023-02-27T06:33:57.169Z,-1.36
2023-02-27T06:36:26.359Z,-1.26
2023-02-27T06:38:54.380Z,-1.21
2023-02-27T06:41:22.090Z,-1.12
2023-02-27T06:43:49.677Z,-1.29
2023-02-27T06:46:17.527Z,-1.23
2023-02-27T06:48:45.553Z,-1.17
2023-02-27T06:51:13.207Z,-0.95
2023-02-27T06:53:43.186Z,-1.01
2023-02-27T06:56:10.727Z,-1.06
2023-02-27T06:58:38.695Z,-1.00
2023-02-27T07:01:06.400Z,-0.84
2023-02-27T07:03:33.971Z,-0.84
2023-02-27T07:06:02.371Z,-1.02
2023-02-27T07:08:30.425Z,-0.87
2023-02-27T07:10:59.738Z,-0.92
2023-02-27T07:13:27.327Z,-0.83
2023-02-27T07:15:54.989Z,-0.95
2023-02-27T07:18:22.604Z,-0.78
2023-02-27T07:20:51.533Z,-0.71
2023-02-27T07:23:19.327Z,-0.78
2023-02-27T07:25:48.528Z,-0.71
2023-02-27T07:28:19.224Z,-0.58
2023-02-27T07:30:47.601Z,-0.64
2023-02-27T07:33:15.671Z,-0.51
2023-02-27T07:35:43.600Z,-0.49
2023-02-27T07:38:11.163Z,-0.52
2023-02-27T07:40:39.115Z,-0.44
2023-02-27T07:43:06.678Z,-0.42
2023-02-27T07:45:35.934Z,-0.42
2023-02-27T07:48:03.498Z,-0.51
2023-02-27T07:50:31.673Z,-0.23
2023-02-27T07:52:59.235Z,-0.05
2023-02-27T07:55:27.378Z,0.01
2023-02-27T07:57:55.603Z,-0.06
2023-02-27T08:00:23.296Z,0.02
2023-02-27T08:02:52.218Z,-0.18
2023-02-27T08:05:20.038Z,-0.06
2023-02-27T08:07:47.604Z,0.07
2023-02-27T08:10:16.668Z,0.08
2023-02-27T08:12:44.754Z,-0.02
2023-02-27T08:15:13.039Z,0.08
2023-02-27T08:17:41.057Z,0.21
2023-02-27T08:20:12.660Z,0.11
2023-02-27T08:22:40.720Z,0.28
2023-02-27T08:25:11.149Z,-0.08
2023-02-27T08:27:39.678Z,0.09
2023-02-27T08:30:11.623Z,0.16
2023-02-27T08:32:39.687Z,0.07
2023-02-27T08:35:08.123Z,0.00
2023-02-27T08:37:37.121Z,0.21
2023-02-27T08:40:06.860Z,0.17
2023-02-27T08:42:35.029Z,0.29
2023-02-27T08:45:03.019Z,0.35
2023-02-27T08:47:30.616Z,0.41
2023-02-27T08:49:58.557Z,0.38
2023-02-27T08:52:26.167Z,0.45
2023-02-27T08:54:55.392Z,0.17
2023-02-27T08:57:22.996Z,0.42
2023-02-27T08:59:50.881Z,0.42
2023-02-27T09:02:18.654Z,0.57
2023-02-27T09:04:46.586Z,0.40
2023-02-27T09:07:14.157Z,0.38
2023-02-27T09:09:42.466Z,0.15
2023-02-27T09:12:11.430Z,0.10
2023-02-27T09:14:40.291Z,0.28
2023-02-27T09:17:08.057Z,0.43
2023-02-27T09:19:36.451Z,0.18
2023-02-27T09:22:04.046Z,0.17
2023-02-27T09:24:31.926Z,0.13
2023-02-27T09:26:59.570Z,0.32
2023-02-27T09:29:29.136Z,0.18
2023-02-27T09:31:57.076Z,0.26
2023-02-27T09:34:24.713Z,0.27
2023-02-27T09:36:52.401Z,0.15
2023-02-27T09:39:20.166Z,0.27
2023-02-27T09:41:56.667Z,0.46
2023-02-27T09:44:45.750Z,0.35
2023-02-27T09:47:19.594Z,0.53
2023-02-27T09:49:56.297Z,0.23
2023-02-27T09:52:24.022Z,0.46
2023-02-27T09:54:52.035Z,0.25
2023-02-27T09:57:32.217Z,0.30
2023-02-27T10:00:07.109Z,0.40
2023-02-27T10:02:55.383Z,0.62
2023-02-27T10:05:32.575Z,0.51
2023-02-27T10:08:06.666Z,0.56
2023-02-27T10:10:41.417Z,0.61
2023-02-27T10:13:27.347Z,0.67
2023-02-27T10:15:58.703Z,0.53
2023-02-27T10:18:31.014Z,0.64
2023-02-27T10:21:01.565Z,0.58
2023-02-27T10:23:36.586Z,0.61
2023-02-27T10:26:05.880Z,0.54
2023-02-27T10:28:34.226Z,0.49
2023-02-27T10:31:04.212Z,0.48
2023-02-27T10:33:36.447Z,0.52
2023-02-27T10:36:12.460Z,0.64
2023-02-27T10:38:46.652Z,0.65
2023-02-27T10:41:18.446Z,0.76
2023-02-27T10:43:46.354Z,0.58
2023-02-27T10:46:18.034Z,0.77
2023-02-27T10:48:46.228Z,0.67
2023-02-27T10:51:26.738Z,0.71
2023-02-27T10:54:15.591Z,0.71
2023-02-27T10:56:47.947Z,0.52
2023-02-27T10:59:20.445Z,0.47
2023-02-27T11:01:53.002Z,0.45
2023-02-27T11:04:29.315Z,0.24
2023-02-27T11:06:57.492Z,0.40
2023-02-27T11:09:28.202Z,0.55
2023-02-27T11:12:10.739Z,0.37
2023-02-27T11:14:50.522Z,0.26
2023-02-27T11:17:29.452Z,0.53
2023-02-27T11:19:57.874Z,0.58
2023-02-27T11:22:28.575Z,0.55
2023-02-27T11:25:19.010Z,0.68
2023-02-27T11:27:48.163Z,0.82
2023-02-27T11:30:26.919Z,0.82
2023-02-27T11:32:58.723Z,1.06
2023-02-27T11:35:29.499Z,1.09
2023-02-27T11:38:00.238Z,0.88
2023-02-27T11:40:32.539Z,1.08
2023-02-27T11:43:05.050Z,1.14
2023-02-27T11:46:04.640Z,1.45
2023-02-27T11:48:29.343Z,1.35
2023-02-27T11:51:26.069Z,1.40
2023-02-27T11:54:08.231Z,1.47
2023-02-27T11:56:39.145Z,1.39
2023-02-27T11:59:18.395Z,1.27
2023-02-27T12:01:51.864Z,1.33
2023-02-27T12:04:25.890Z,1.31
2023-02-27T12:06:58.670Z,1.16
2023-02-27T12:09:37.059Z,1.20
2023-02-27T12:12:10.318Z,1.28
2023-02-27T12:14:45.248Z,1.39
2023-02-27T12:17:21.460Z,1.59
2023-02-27T12:19:59.564Z,1.47
2023-02-27T12:22:31.522Z,1.49
2023-02-27T12:25:05.646Z,1.55
2023-02-27T12:27:43.781Z,1.44
2023-02-27T12:30:18.785Z,1.42
2023-02-27T12:32:50.529Z,1.37
2023-02-27T12:35:24.392Z,1.36
2023-02-27T12:37:52.903Z,1.46
2023-02-27T12:40:26.848Z,1.56
2023-02-27T12:43:22.141Z,1.85
2023-02-27T12:46:00.809Z,1.90
2023-02-27T12:48:45.072Z,1.82
2023-02-27T12:51:28.573Z,1.66
2023-02-27T12:54:11.870Z,1.66
2023-02-27T12:56:50.849Z,1.75
2023-02-27T12:59:30.174Z,1.91
2023-02-27T13:02:06.273Z,1.80
2023-02-27T13:04:42.852Z,1.83
2023-02-27T13:07:22.445Z,1.67
2023-02-27T13:09:53.332Z,1.67
2023-02-27T13:12:30.160Z,1.69
2023-02-27T13:15:04.397Z,1.68
2023-02-27T13:17:39.190Z,1.68
2023-02-27T13:20:20.881Z,1.62
2023-02-27T13:22:58.504Z,1.56
2023-02-27T13:25:27.091Z,1.85
2023-02-27T13:27:58.598Z,1.61
2023-02-27T13:30:30.426Z,1.74
2023-02-27T13:33:07.031Z,1.73
2023-02-27T13:35:50.167Z,1.80
2023-02-27T13:38:43.676Z,1.92
2023-02-27T13:41:39.208Z,2.05
2023-02-27T13:44:38.671Z,1.66
2023-02-27T13:47:45.859Z,1.48
2023-02-27T13:50:51.763Z,1.70
2023-02-27T13:53:21.496Z,1.78
2023-02-27T13:55:53.727Z,1.62
2023-02-27T13:58:25.515Z,2.02
2023-02-27T14:00:59.857Z,1.91
2023-02-27T14:03:30.081Z,1.87
2023-02-27T14:06:03.233Z,1.97
2023-02-27T14:08:35.329Z,1.91
2023-02-27T14:11:16.886Z,1.85
2023-02-27T14:14:04.911Z,1.90
2023-02-27T14:17:03.427Z,1.91
2023-02-27T14:19:51.350Z,1.80
2023-02-27T14:23:10.226Z,1.82
2023-02-27T14:25:41.297Z,1.77
2023-02-27T14:28:22.521Z,1.79
2023-02-27T14:30:57.721Z,1.65
2023-02-27T14:33:39.617Z,1.48
2023-02-27T14:36:16.174Z,1.09
2023-02-27T14:38:44.060Z,1.15
2023-02-27T14:41:32.900Z,1.25
2023-02-27T14:44:02.163Z,1.21
2023-02-27T14:46:39.653Z,1.31
2023-02-27T14:49:24.977Z,1.37
2023-02-27T14:51:54.902Z,1.18
2023-02-27T14:54:26.674Z,1.19
2023-02-27T14:56:58.235Z,1.20
2023-02-27T14:59:31.347Z,1.17
2023-02-27T15:02:04.378Z,0.97
2023-02-27T15:04:35.901Z,1.09
2023-02-27T15:07:05.219Z,1.02
2023-02-27T15:09:40.824Z,1.11
2023-02-27T15:12:10.737Z,1.15
2023-02-27T15:14:42.074Z,1.15
2023-02-27T15:17:17.897Z,1.21
2023-02-27T15:19:50.667Z,1.12
2023-02-27T15:22:36.212Z,1.12
2023-02-27T15:25:07.856Z,0.94
2023-02-27T15:27:38.048Z,1.04
2023-02-27T15:30:09.610Z,1.09
2023-02-27T15:32:40.700Z,0.99
2023-02-27T15:35:16.736Z,1.00
2023-02-27T15:37:49.721Z,1.04
2023-02-27T15:40:21.739Z,1.15
2023-02-27T15:42:49.994Z,1.26
2023-02-27T15:45:22.660Z,1.26
2023-02-27T15:47:50.286Z,1.36
2023-02-27T15:50:27.279Z,1.47
2023-02-27T15:52:59.930Z,1.27
2023-02-27T15:55:30.426Z,1.01
2023-02-27T15:58:11.144Z,1.13
2023-02-27T16:00:40.532Z,0.91
2023-02-27T16:03:09.999Z,0.95
2023-02-27T16:05:42.871Z,1.03
2023-02-27T16:08:18.939Z,0.87
2023-02-27T16:10:48.388Z,0.77
2023-02-27T16:13:30.456Z,0.92
2023-02-27T16:16:02.841Z,0.86
2023-02-27T16:18:34.769Z,0.74
2023-02-27T16:21:14.090Z,0.77
2023-02-27T16:23:42.509Z,0.89
2023-02-27T16:26:28.252Z,0.86
2023-02-27T16:28:59.759Z,0.76
2023-02-27T16:31:32.386Z,0.66
2023-02-27T16:34:01.917Z,0.74
2023-02-27T16:36:32.127Z,0.63
2023-02-27T16:38:59.978Z,0.54
2023-02-27T16:41:28.366Z,0.62
2023-02-27T16:43:56.316Z,0.47
2023-02-27T16:46:24.637Z,0.39
2023-02-27T16:48:55.728Z,0.36
2023-02-27T16:51:25.412Z,0.59
2023-02-27T16:53:54.849Z,0.46
2023-02-27T16:56:37.031Z,0.32
2023-02-27T16:59:06.967Z,0.31
2023-02-27T17:01:34.980Z,0.41
2023-02-27T17:04:08.686Z,0.23
2023-02-27T17:06:41.548Z,0.28
2023-02-27T17:09:10.788Z,0.24
2023-02-27T17:11:38.464Z,0.27
2023-02-27T17:14:06.404Z,0.47
2023-02-27T17:16:34.019Z,0.42
2023-02-27T17:19:01.626Z,0.50
2023-02-27T17:21:30.933Z,0.55
2023-02-27T17:23:58.568Z,0.37
2023-02-27T17:26:27.480Z,0.10
2023-02-27T17:28:56.419Z,-0.02
2023-02-27T17:31:24.426Z,0.11
2023-02-27T17:33:53.654Z,-0.07
2023-02-27T17:36:24.674Z,-0.02
2023-02-27T17:38:57.303Z,-0.16
2023-02-27T17:41:25.582Z,-0.10
2023-02-27T17:43:55.297Z,0.10
2023-02-27T17:46:24.229Z,0.17
2023-02-27T17:48:52.041Z,0.12
2023-02-27T17:51:20.239Z,0.07
2023-02-27T17:53:48.595Z,0.28
2023-02-27T17:56:17.649Z,0.30
2023-02-27T17:58:45.672Z,0.19
2023-02-27T18:01:16.973Z,0.15
2023-02-27T18:03:45.280Z,0.28
2023-02-27T18:06:13.196Z,-0.01
2023-02-27T18:08:40.795Z,-0.05
2023-02-27T18:11:10.803Z,0.03
2023-02-27T18:13:41.098Z,0.17
2023-02-27T18:16:09.100Z,0.17
2023-02-27T18:18:37.743Z,0.18
2023-02-27T18:21:09.113Z,0.16
2023-02-27T18:23:37.216Z,0.06
2023-02-27T18:26:05.566Z,0.11
2023-02-27T18:28:33.263Z,0.10
2023-02-27T18:31:02.183Z,0.12
2023-02-27T18:33:29.774Z,0.02
2023-02-27T18:35:57.419Z,0.14
2023-02-27T18:38:25.045Z,-0.05
2023-02-27T18:40:52.616Z,0.10
2023-02-27T18:43:20.322Z,-0.01
2023-02-27T18:45:48.093Z,-0.31
2023-02-27T18:48:17.183Z,0.12
2023-02-27T18:50:44.826Z,-0.05
2023-02-27T18:53:12.875Z,0.02
2023-02-27T18:55:40.727Z,-0.02
2023-02-27T18:58:08.846Z,0.09
2023-02-27T19:00:36.530Z,0.11
2023-02-27T19:03:06.987Z,0.06
2023-02-27T19:05:41.084Z,-0.03
2023-02-27T19:08:08.933Z,0.08
2023-02-27T19:10:39.139Z,0.06
2023-02-27T19:13:07.307Z,0.08
2023-02-27T19:15:34.894Z,-0.08
2023-02-27T19:18:02.774Z,0.02
2023-02-27T19:20:30.340Z,-0.16
2023-02-27T19:22:59.561Z,-0.28
2023-02-27T19:25:27.217Z,-0.25
2023-02-27T19:27:56.696Z,-0.11
2023-02-27T19:30:25.958Z,-0.38
2023-02-27T19:32:54.056Z,-0.57
2023-02-27T19:35:22.647Z,-0.35
2023-02-27T19:37:56.884Z,-0.15
2023-02-27T19:40:28.155Z,-0.28
2023-02-27T19:42:56.112Z,-0.26
2023-02-27T19:45:24.138Z,-0.17
2023-02-27T19:47:51.761Z,-0.43
2023-02-27T19:50:19.402Z,-0.33
2023-02-27T19:52:46.971Z,-0.38
2023-02-27T19:55:14.914Z,-0.39
2023-02-27T19:57:43.818Z,-0.44
2023-02-27T20:00:14.007Z,-0.29
2023-02-27T20:02:41.916Z,-0.26
2023-02-27T20:05:12.061Z,-0.35
2023-02-27T20:07:40.472Z,-0.55
2023-02-27T20:10:08.455Z,-0.42
2023-02-27T20:12:36.048Z,-0.42
2023-02-27T20:15:09.826Z,-0.36
2023-02-27T20:17:37.961Z,-0.53
2023-02-27T20:20:07.609Z,-0.49
2023-02-27T20:22:35.277Z,-0.43
2023-02-27T20:25:03.596Z,-0.59
2023-02-27T20:27:31.176Z,-0.51
2023-02-27T20:29:59.320Z,-0.67
2023-02-27T20:32:29.056Z,-0.79
2023-02-27T20:34:57.305Z,-0.70
2023-02-27T20:37:24.909Z,-0.73
2023-02-27T20:39:53.093Z,-0.91
2023-02-27T20:42:20.970Z,-0.87
2023-02-27T20:44:50.521Z,-0.83
2023-02-27T20:47:18.404Z,-0.95
2023-02-27T20:49:47.751Z,-1.04
2023-02-27T20:52:15.617Z,-0.92
2023-02-27T20:54:43.595Z,-0.84
2023-02-27T20:57:11.450Z,-0.94
2023-02-27T20:59:39.218Z,-0.93
2023-02-27T21:02:08.523Z,-0.99
2023-02-27T21:04:43.769Z,-0.99
2023-02-27T21:07:15.092Z,-0.88
2023-02-27T21:09:43.217Z,-0.89
2023-02-27T21:12:11.752Z,-0.77
2023-02-27T21:14:39.424Z,-0.78
2023-02-27T21:17:07.380Z,-0.82
2023-02-27T21:19:35.341Z,-1.00
2023-02-27T21:22:02.913Z,-0.84
2023-02-27T21:24:32.768Z,-0.82
2023-02-27T21:27:00.674Z,-0.95
2023-02-27T21:29:28.791Z,-0.87
2023-02-27T21:31:56.362Z,-0.82
2023-02-27T21:34:26.874Z,-0.88
2023-02-27T21:36:54.933Z,-0.98
2023-02-27T21:39:24.357Z,-0.83
2023-02-27T21:41:53.950Z,-0.92
2023-02-27T21:44:25.551Z,-0.84
2023-02-27T21:46:54.095Z,-0.98
2023-02-27T21:49:23.511Z,-0.94
2023-02-27T21:51:51.484Z,-1.00
2023-02-27T21:54:19.944Z,-0.90
2023-02-27T21:56:49.762Z,-1.03
2023-02-27T21:59:21.579Z,-0.88
2023-02-27T22:01:49.846Z,-1.05
2023-02-27T22:04:18.659Z,-1.00
2023-02-27T22:06:47.784Z,-1.01
2023-02-27T22:09:15.892Z,-1.01
2023-02-27T22:11:44.159Z,-1.05
2023-02-27T22:14:13.324Z,-0.95
2023-02-27T22:16:42.335Z,-0.84
2023-02-27T22:19:11.948Z,-0.92
2023-02-27T22:21:40.431Z,-0.96
2023-02-27T22:24:08.522Z,-0.94
2023-02-27T22:26:36.628Z,-1.00
2023-02-27T22:29:05.638Z,-0.99
2023-02-27T22:31:38.768Z,-0.88
2023-02-27T22:34:11.974Z,-1.02
2023-02-27T22:36:41.941Z,-0.92
2023-02-27T22:39:09.533Z,-0.98
2023-02-27T22:41:40.094Z,-0.90
2023-02-27T22:44:09.456Z,-1.08
2023-02-27T22:46:39.390Z,-1.01
2023-02-27T22:49:11.244Z,-1.05
2023-02-27T22:51:39.340Z,-0.98
2023-02-27T22:54:07.622Z,-0.96
2023-02-27T22:56:36.936Z,-0.87
2023-02-27T22:59:23.194Z,-0.96
2023-02-27T23:01:51.675Z,-0.88
2023-02-27T23:04:22.098Z,-0.84
2023-02-27T23:06:52.474Z,-0.84
2023-02-27T23:09:22.892Z,-0.83
2023-02-27T23:11:52.174Z,-0.83
2023-02-27T23:14:21.072Z,-0.83
2023-02-27T23:16:49.196Z,-0.82
2023-02-27T23:19:21.249Z,-0.71
2023-02-27T23:21:49.473Z,-0.73
2023-02-27T23:24:19.272Z,-0.79
2023-02-27T23:26:49.321Z,-0.72
2023-02-27T23:29:18.410Z,-0.62
2023-02-27T23:31:46.488Z,-0.73
2023-02-27T23:34:14.213Z,-0.65
2023-02-27T23:36:43.788Z,-0.66
2023-02-27T23:39:11.360Z,-0.67
2023-02-27T23:41:39.559Z,-0.66
2023-02-27T23:44:07.133Z,-0.64
2023-02-27T23:46:35.091Z,-0.63
2023-02-27T23:49:03.201Z,-0.57
2023-02-27T23:51:33.090Z,-0.65
2023-02-27T23:54:02.609Z,-0.66
2023-02-27T23:56:31.423Z,-0.68
2023-02-27T23:59:01.441Z,-0.48
